Time;durP1;ratioP1;P1;durP2;ratioP2;P2;SDS_P1;SDS_P2;PMS_P1;PMS_P2;Temp;Humidity;BMP_temperature;BMP_pressure;BME280_temperature;BME280_humidity;BME280_pressure;Samples;Min_cycle;Max_cycle;Signal;HPM_P1;HPM_P2
2023/10/01 00:01:03;;;;;;;8.85;3.30;;;13.60;94.60;;;;;;5003760;28;20113;-69
2023/10/01 00:03:28;;;;;;;8.50;3.35;;;13.50;94.50;;;;;;5001810;28;20026;-68
2023/10/01 00:05:54;;;;;;;9.45;3.13;;;13.50;94.50;;;;;;4996254;28;20022;-69
2023/10/01 00:08:20;;;;;;;6.55;2.85;;;13.50;94.40;;;;;;5002838;28;20069;-69
2023/10/01 00:10:46;;;;;;;9.02;3.08;;;13.50;94.50;;;;;;5008561;28;20034;-69
2023/10/01 00:13:11;;;;;;;9.80;3.45;;;13.50;94.50;;;;;;4997520;28;20121;-69
2023/10/01 00:15:37;;;;;;;7.43;3.35;;;13.50;94.50;;;;;;4996222;28;20446;-69
2023/10/01 00:18:06;;;;;;;6.22;2.88;;;13.50;94.30;;;;;;5002752;28;20045;-69
2023/10/01 00:20:33;;;;;;;7.68;3.10;;;13.50;94.40;;;;;;5005259;28;20081;-69
2023/10/01 00:23:02;;;;;;;12.55;3.08;;;13.50;94.40;;;;;;5003681;28;20036;-69
2023/10/01 00:25:28;;;;;;;10.82;2.70;;;13.50;94.30;;;;;;5009628;28;20061;-68
2023/10/01 00:27:54;;;;;;;6.10;3.20;;;13.50;94.40;;;;;;5007579;28;20616;-68
2023/10/01 00:30:21;;;;;;;7.10;3.42;;;13.50;94.30;;;;;;5000335;28;20029;-69
2023/10/01 00:32:47;;;;;;;6.00;3.20;;;13.50;94.40;;;;;;5013245;28;20068;-69
2023/10/01 00:35:13;;;;;;;7.72;3.10;;;13.50;94.30;;;;;;5012079;28;20487;-69
2023/10/01 00:37:38;;;;;;;6.60;3.10;;;13.50;94.20;;;;;;5007294;28;20052;-69
2023/10/01 00:40:05;;;;;;;11.00;3.75;;;13.50;94.20;;;;;;5012254;28;20073;-70
2023/10/01 00:42:35;;;;;;;8.73;3.30;;;13.50;94.10;;;;;;5007797;28;20030;-70
2023/10/01 00:45:02;;;;;;;7.85;2.95;;;13.50;94.10;;;;;;5010798;28;20034;-69
2023/10/01 00:47:29;;;;;;;9.63;2.95;;;13.50;94.20;;;;;;5013641;28;20026;-68
2023/10/01 00:49:57;;;;;;;7.22;3.42;;;13.50;94.20;;;;;;5012893;28;20048;-68
2023/10/01 00:52:23;;;;;;;6.30;3.08;;;13.50;94.20;;;;;;5007399;28;20026;-68
2023/10/01 00:54:51;;;;;;;6.97;3.47;;;13.50;94.20;;;;;;5012679;28;20029;-68
2023/10/01 00:57:17;;;;;;;7.63;3.33;;;13.50;94.20;;;;;;5009007;28;20117;-68
2023/10/01 00:59:45;;;;;;;6.60;2.88;;;13.50;94.20;;;;;;5003860;28;20129;-68
2023/10/01 01:02:15;;;;;;;7.90;3.35;;;13.40;94.20;;;;;;5007208;28;20034;-68
2023/10/01 01:04:44;;;;;;;7.45;3.70;;;13.40;94.30;;;;;;5009401;28;20021;-70
2023/10/01 01:07:15;;;;;;;7.40;3.35;;;13.40;94.40;;;;;;5001969;28;20612;-68
2023/10/01 01:09:42;;;;;;;6.35;3.22;;;13.40;94.30;;;;;;5009827;28;20309;-68
2023/10/01 01:12:07;;;;;;;9.05;3.50;;;13.50;94.40;;;;;;5013772;28;20060;-68
2023/10/01 01:14:33;;;;;;;7.15;3.65;;;13.40;94.30;;;;;;5005072;28;20045;-70
2023/10/01 01:16:59;;;;;;;9.57;4.07;;;13.50;94.40;;;;;;5002256;28;20083;-68
2023/10/01 01:19:26;;;;;;;9.95;4.05;;;13.50;94.40;;;;;;5007480;28;20025;-71
2023/10/01 01:21:52;;;;;;;8.45;3.97;;;13.40;94.30;;;;;;5008804;28;20092;-69
2023/10/01 01:24:21;;;;;;;11.68;3.60;;;13.40;94.40;;;;;;5009085;28;20076;-69
2023/10/01 01:26:51;;;;;;;10.85;4.00;;;13.40;94.50;;;;;;5006036;28;20057;-69
2023/10/01 01:30:06;;;;;;;11.40;4.20;;;13.30;94.60;;;;;;5006761;28;20352;-69
2023/10/01 01:32:16;;;;;;;6.88;3.83;;;13.40;94.60;;;;;;5004791;28;20050;-68
2023/10/01 01:34:44;;;;;;;8.02;3.97;;;13.30;94.70;;;;;;5010070;28;20030;-68
2023/10/01 01:37:19;;;;;;;10.02;4.25;;;13.40;94.60;;;;;;5008310;28;20034;-69
2023/10/01 01:39:48;;;;;;;10.15;4.45;;;13.40;94.60;;;;;;5009638;28;20124;-68
2023/10/01 01:42:21;;;;;;;9.77;3.83;;;13.40;94.70;;;;;;5008022;28;20383;-72
2023/10/01 01:47:36;;;;;;;10.57;4.53;;;13.30;94.60;;;;;;5009159;28;20084;-69
2023/10/01 01:50:18;;;;;;;10.70;4.30;;;13.40;94.70;;;;;;5007852;28;20565;-69
2023/10/01 01:52:51;;;;;;;9.13;4.05;;;13.40;94.60;;;;;;5007692;28;20471;-69
2023/10/01 01:55:26;;;;;;;9.90;4.70;;;13.40;94.50;;;;;;4998657;28;20033;-68
2023/10/01 01:58:11;;;;;;;11.63;4.57;;;13.40;94.60;;;;;;5006298;28;20549;-69
2023/10/01 02:00:38;;;;;;;8.15;4.40;;;13.50;94.50;;;;;;5006465;28;20355;-68
2023/10/01 02:03:14;;;;;;;11.65;4.00;;;13.50;94.50;;;;;;5003980;28;20030;-70
2023/10/01 02:05:41;;;;;;;7.88;4.70;;;13.50;94.50;;;;;;5002064;28;20130;-68
2023/10/01 02:08:23;;;;;;;9.85;4.45;;;13.50;94.50;;;;;;5009583;28;20109;-68
2023/10/01 02:10:59;;;;;;;10.48;4.57;;;13.50;94.50;;;;;;5006733;28;20034;-68
2023/10/01 02:13:25;;;;;;;11.88;4.57;;;13.40;94.50;;;;;;5003898;28;20030;-70
2023/10/01 02:15:51;;;;;;;8.80;4.57;;;13.40;94.60;;;;;;5007922;28;20373;-69
2023/10/01 02:18:17;;;;;;;10.50;4.82;;;13.40;94.60;;;;;;5008975;28;20227;-68
2023/10/01 02:20:51;;;;;;;14.88;4.65;;;13.50;94.70;;;;;;5011031;28;20156;-69
2023/10/01 02:23:25;;;;;;;11.25;4.75;;;13.50;94.70;;;;;;5007855;28;20030;-69
2023/10/01 02:25:51;;;;;;;10.35;4.45;;;13.50;94.60;;;;;;5009292;28;20046;-68
2023/10/01 02:28:17;;;;;;;8.18;4.20;;;13.40;94.60;;;;;;4996711;28;20022;-68
2023/10/01 02:30:44;;;;;;;10.50;5.40;;;13.50;94.60;;;;;;5004101;28;20034;-69
2023/10/01 02:33:17;;;;;;;10.48;5.35;;;13.50;94.60;;;;;;5009724;28;20386;-69
2023/10/01 02:35:46;;;;;;;10.30;4.70;;;13.40;94.70;;;;;;5010383;28;20585;-69
2023/10/01 02:40:57;;;;;;;8.82;5.18;;;13.40;94.70;;;;;;5004817;28;20045;-69
2023/10/01 02:43:26;;;;;;;7.35;4.70;;;13.30;94.70;;;;;;5010015;28;20028;-69
2023/10/01 02:45:52;;;;;;;9.52;5.00;;;13.30;94.70;;;;;;5007794;28;20034;-69
2023/10/01 02:48:17;;;;;;;9.73;4.63;;;13.20;94.80;;;;;;5006067;28;20036;-70
2023/10/01 02:50:54;;;;;;;12.40;5.00;;;13.10;95.00;;;;;;5008221;28;20232;-68
2023/10/01 02:53:21;;;;;;;9.05;5.13;;;13.10;95.20;;;;;;5008269;28;20029;-68
2023/10/01 02:55:57;;;;;;;9.85;4.97;;;13.00;95.30;;;;;;5011759;28;20080;-68
2023/10/01 02:58:32;;;;;;;10.05;5.50;;;13.00;95.30;;;;;;5006980;28;20061;-68
2023/10/01 03:01:04;;;;;;;12.63;5.97;;;13.00;95.50;;;;;;5002603;28;20030;-68
2023/10/01 03:03:38;;;;;;;9.93;5.72;;;12.90;95.50;;;;;;5011207;28;20707;-69
2023/10/01 03:06:08;;;;;;;9.93;5.50;;;13.00;95.70;;;;;;5010947;28;20030;-68
2023/10/01 03:11:12;;;;;;;12.38;5.78;;;12.90;95.90;;;;;;5011346;28;20045;-69
2023/10/01 03:13:38;;;;;;;14.30;6.10;;;12.90;95.90;;;;;;5001959;28;20029;-69
2023/10/01 03:18:54;;;;;;;12.50;5.47;;;13.00;95.80;;;;;;5008139;28;20386;-69
2023/10/01 03:21:59;;;;;;;13.00;6.80;;;13.00;95.80;;;;;;5005008;28;20033;-69
2023/10/01 03:24:09;;;;;;;12.60;6.28;;;13.00;95.80;;;;;;4997955;28;20176;-71
2023/10/01 03:26:34;;;;;;;13.43;5.78;;;13.00;95.90;;;;;;5000961;28;20490;-70
2023/10/01 03:29:16;;;;;;;12.30;6.38;;;13.00;95.80;;;;;;5003324;28;20044;-68
2023/10/01 03:31:46;;;;;;;13.45;6.68;;;13.00;95.80;;;;;;4998025;28;20046;-68
2023/10/01 03:34:28;;;;;;;14.57;6.93;;;13.00;95.90;;;;;;5007509;28;20040;-69
2023/10/01 03:37:00;;;;;;;14.55;6.57;;;13.00;95.80;;;;;;4996401;28;20030;-69
2023/10/01 03:39:26;;;;;;;18.30;6.93;;;13.00;95.80;;;;;;5009482;28;20031;-69
2023/10/01 03:41:53;;;;;;;11.32;6.22;;;13.00;95.70;;;;;;4999444;28;20041;-68
2023/10/01 03:44:42;;;;;;;11.38;6.45;;;13.00;95.70;;;;;;5008860;28;20037;-68
2023/10/01 03:47:08;;;;;;;12.25;6.40;;;13.00;95.80;;;;;;5002763;28;20033;-68
2023/10/01 03:49:37;;;;;;;13.48;6.07;;;13.00;95.80;;;;;;5011392;28;20026;-68
2023/10/01 03:52:03;;;;;;;12.63;6.63;;;13.00;95.70;;;;;;5008637;28;20041;-71
2023/10/01 03:55:25;;;;;;;15.35;7.35;;;13.00;95.80;;;;;;5002119;28;20022;-68
2023/10/01 03:57:17;;;;;;;10.52;6.53;;;13.00;95.80;;;;;;5008510;28;20157;-70
2023/10/01 03:59:53;;;;;;;14.23;6.97;;;13.00;95.90;;;;;;5006635;28;20037;-69
2023/10/01 04:02:27;;;;;;;13.27;7.15;;;12.90;95.80;;;;;;4988574;28;20061;-71
2023/10/01 04:04:56;;;;;;;11.73;7.03;;;12.90;95.90;;;;;;4989590;28;20018;-68
2023/10/01 04:07:22;;;;;;;15.63;7.13;;;12.80;96.00;;;;;;4999179;28;20041;-68
2023/10/01 04:09:50;;;;;;;13.57;7.15;;;12.80;96.10;;;;;;5008116;28;20034;-68
2023/10/01 04:12:20;;;;;;;10.88;7.63;;;12.80;96.10;;;;;;5003334;28;20447;-68
2023/10/01 04:14:52;;;;;;;16.65;7.95;;;12.80;96.10;;;;;;4996878;28;20023;-68
2023/10/01 04:17:19;;;;;;;13.20;7.78;;;12.80;96.10;;;;;;5001537;28;20053;-68
2023/10/01 04:19:49;;;;;;;12.77;7.20;;;12.80;96.20;;;;;;5004814;28;20061;-71
2023/10/01 04:22:17;;;;;;;13.70;7.68;;;12.70;96.10;;;;;;5005089;28;20057;-69
2023/10/01 04:24:44;;;;;;;14.25;7.10;;;12.70;96.30;;;;;;5001504;28;20112;-68
2023/10/01 04:27:23;;;;;;;15.88;8.68;;;12.60;96.20;;;;;;5008313;28;20036;-64
2023/10/01 04:29:57;;;;;;;15.07;8.32;;;12.60;96.30;;;;;;5002025;28;20026;-65
2023/10/01 04:32:27;;;;;;;16.23;8.38;;;12.50;96.50;;;;;;5005188;28;20026;-65
2023/10/01 04:34:56;;;;;;;14.10;8.75;;;12.40;96.50;;;;;;5003325;28;20165;-65
2023/10/01 04:37:36;;;;;;;13.48;8.75;;;12.40;96.60;;;;;;5002251;28;20027;-66
2023/10/01 04:40:04;;;;;;;15.68;9.23;;;12.30;96.70;;;;;;5007872;28;20470;-64
2023/10/01 04:42:30;;;;;;;15.88;9.32;;;12.30;96.80;;;;;;5005548;28;20034;-66
2023/10/01 04:44:55;;;;;;;18.30;9.85;;;12.30;96.90;;;;;;5000069;28;20029;-64
2023/10/01 04:47:40;;;;;;;15.25;9.55;;;12.30;96.90;;;;;;5005127;28;20022;-65
2023/10/01 04:50:06;;;;;;;19.95;9.45;;;12.40;97.00;;;;;;5004369;28;20455;-66
2023/10/01 04:52:32;;;;;;;16.90;9.98;;;12.50;97.00;;;;;;4996669;28;20033;-64
2023/10/01 04:54:58;;;;;;;18.60;10.52;;;12.50;96.90;;;;;;5006239;28;20083;-65
2023/10/01 04:57:25;;;;;;;19.67;10.73;;;12.50;96.80;;;;;;5000123;28;20038;-65
2023/10/01 04:59:59;;;;;;;19.20;10.88;;;12.50;96.80;;;;;;5005664;28;20414;-64
2023/10/01 05:02:25;;;;;;;15.20;9.95;;;12.50;96.70;;;;;;5003196;28;20037;-65
2023/10/01 05:04:51;;;;;;;17.95;9.57;;;12.30;96.60;;;;;;5007172;28;20046;-66
2023/10/01 05:07:16;;;;;;;18.30;9.82;;;12.30;96.70;;;;;;4998404;28;20022;-67
2023/10/01 05:09:43;;;;;;;18.73;9.73;;;12.20;96.80;;;;;;4998623;28;20026;-66
2023/10/01 05:12:11;;;;;;;17.23;10.50;;;12.10;96.90;;;;;;5001874;28;20112;-65
2023/10/01 05:14:59;;;;;;;17.60;9.98;;;12.10;97.00;;;;;;5004662;28;20033;-69
2023/10/01 05:17:22;;;;;;;17.73;10.70;;;12.10;97.20;;;;;;5000332;28;20415;-65
2023/10/01 05:19:50;;;;;;;20.52;10.60;;;12.10;97.20;;;;;;5000680;28;20072;-65
2023/10/01 05:22:17;;;;;;;16.55;10.48;;;12.10;97.30;;;;;;5008888;28;20037;-65
2023/10/01 05:24:48;;;;;;;17.83;11.60;;;12.10;97.20;;;;;;5001121;28;20030;-64
2023/10/01 05:27:19;;;;;;;19.48;10.75;;;12.10;97.20;;;;;;5004998;28;20037;-69
2023/10/01 05:29:45;;;;;;;18.23;11.38;;;12.00;97.20;;;;;;4998640;28;20045;-65
2023/10/01 05:32:11;;;;;;;21.20;11.85;;;12.10;97.30;;;;;;5002340;28;20029;-65
2023/10/01 05:34:46;;;;;;;19.08;11.57;;;12.10;97.30;;;;;;5002140;28;20023;-65
2023/10/01 05:37:24;;;;;;;20.52;12.27;;;12.10;97.30;;;;;;4992486;28;20026;-69
2023/10/01 05:39:57;;;;;;;23.80;12.52;;;12.10;97.20;;;;;;5000399;28;20379;-65
2023/10/01 05:42:25;;;;;;;21.05;11.73;;;12.20;97.20;;;;;;5011828;28;20100;-68
2023/10/01 05:44:50;;;;;;;21.40;12.95;;;12.20;97.10;;;;;;4999424;28;20038;-65
2023/10/01 05:47:17;;;;;;;19.45;11.75;;;12.20;97.00;;;;;;4998401;28;20037;-66
2023/10/01 05:49:49;;;;;;;22.38;13.55;;;12.30;96.90;;;;;;5005849;28;20031;-66
2023/10/01 05:52:18;;;;;;;19.90;12.20;;;12.30;96.80;;;;;;5007779;28;20036;-67
2023/10/01 05:54:52;;;;;;;24.20;12.38;;;12.20;96.70;;;;;;4999078;28;20802;-65
2023/10/01 05:57:21;;;;;;;18.52;11.65;;;12.20;96.70;;;;;;5002286;28;20034;-65
2023/10/01 05:59:56;;;;;;;19.65;12.32;;;12.30;96.70;;;;;;5004172;28;20040;-65
2023/10/01 06:07:56;;;;;;;21.08;12.35;;;12.40;96.50;;;;;;4994585;28;20049;-66
2023/10/01 06:10:35;;;;;;;18.58;12.38;;;12.50;96.40;;;;;;5002634;28;20030;-65
2023/10/01 06:13:06;;;;;;;18.80;11.85;;;12.40;96.20;;;;;;5002757;28;20026;-67
2023/10/01 06:15:33;;;;;;;18.20;11.30;;;12.40;96.30;;;;;;4997208;28;20533;-65
2023/10/01 06:18:00;;;;;;;17.58;11.98;;;12.40;96.20;;;;;;5003999;28;20030;-65
2023/10/01 06:20:27;;;;;;;18.90;11.75;;;12.40;96.00;;;;;;5007205;28;20121;-65
2023/10/01 06:22:55;;;;;;;19.77;11.57;;;12.50;96.00;;;;;;5006317;28;20034;-65
2023/10/01 06:25:37;;;;;;;19.52;11.30;;;12.60;96.00;;;;;;5002224;28;20065;-65
2023/10/01 06:28:08;;;;;;;20.38;11.00;;;12.70;95.80;;;;;;5005218;28;20033;-65
2023/10/01 06:30:39;;;;;;;19.52;11.07;;;12.80;95.70;;;;;;4996829;28;20029;-65
2023/10/01 06:33:09;;;;;;;21.10;9.90;;;12.90;95.50;;;;;;5000078;28;20137;-65
2023/10/01 06:35:37;;;;;;;15.52;10.20;;;12.90;95.10;;;;;;5002447;28;23041;-64
2023/10/01 06:38:04;;;;;;;15.38;9.73;;;13.00;95.10;;;;;;5004997;28;20036;-65
2023/10/01 06:40:30;;;;;;;16.63;10.02;;;13.20;95.00;;;;;;5006407;28;20113;-65
2023/10/01 06:43:00;;;;;;;13.75;9.40;;;13.20;94.40;;;;;;5003686;28;20534;-65
2023/10/01 06:45:38;;;;;;;17.88;9.70;;;13.30;94.20;;;;;;4999620;28;20076;-65
2023/10/01 06:48:14;;;;;;;14.23;9.55;;;13.40;94.30;;;;;;4999156;28;20037;-65
2023/10/01 06:50:40;;;;;;;15.20;9.30;;;13.50;94.10;;;;;;5003188;28;20030;-65
2023/10/01 06:53:07;;;;;;;16.25;9.18;;;13.50;94.10;;;;;;4998814;28;20070;-65
2023/10/01 06:55:36;;;;;;;18.48;9.65;;;13.60;93.90;;;;;;5001539;28;20026;-68
2023/10/01 06:58:06;;;;;;;14.68;9.25;;;13.60;93.70;;;;;;5002700;28;20026;-66
2023/10/01 07:00:36;;;;;;;14.27;8.80;;;13.60;92.90;;;;;;5002800;28;20034;-66
2023/10/01 07:03:18;;;;;;;13.05;8.38;;;13.80;93.40;;;;;;5001248;28;20080;-65
2023/10/01 07:05:51;;;;;;;14.00;8.50;;;14.00;93.30;;;;;;5002805;28;20525;-66
2023/10/01 07:08:18;;;;;;;11.65;8.13;;;14.10;92.80;;;;;;4996999;28;20109;-65
2023/10/01 07:10:46;;;;;;;14.63;7.60;;;14.20;92.60;;;;;;5005366;28;20076;-65
2023/10/01 07:13:15;;;;;;;16.15;8.25;;;14.20;92.10;;;;;;4996693;28;20060;-65
2023/10/01 07:15:43;;;;;;;16.10;7.25;;;14.10;91.70;;;;;;5000168;28;20061;-65
2023/10/01 07:18:19;;;;;;;13.02;7.47;;;14.20;91.90;;;;;;4997925;28;20089;-69
2023/10/01 07:20:49;;;;;;;13.48;8.32;;;14.30;92.00;;;;;;4998548;28;20018;-66
2023/10/01 07:23:15;;;;;;;15.07;7.60;;;14.40;91.80;;;;;;5007332;28;20126;-65
2023/10/01 07:25:43;;;;;;;12.38;7.25;;;14.40;91.50;;;;;;5002937;28;20088;-67
2023/10/01 07:28:12;;;;;;;12.45;7.63;;;14.50;91.70;;;;;;4999572;28;20371;-65
2023/10/01 07:31:01;;;;;;;14.02;7.15;;;14.50;91.30;;;;;;5001929;28;20068;-65
2023/10/01 07:33:28;;;;;;;11.27;6.60;;;14.50;91.10;;;;;;4999922;28;20030;-65
2023/10/01 07:36:00;;;;;;;10.50;6.90;;;14.60;91.20;;;;;;5010775;28;20034;-67
2023/10/01 07:38:28;;;;;;;12.35;7.22;;;14.60;90.80;;;;;;5009200;28;20025;-66
2023/10/01 07:41:07;;;;;;;12.27;7.25;;;14.50;90.80;;;;;;5009780;28;20021;-66
2023/10/01 07:43:33;;;;;;;10.80;7.13;;;14.60;90.60;;;;;;5000575;28;20034;-66
2023/10/01 07:46:02;;;;;;;15.32;7.38;;;14.80;90.50;;;;;;5009098;28;20041;-67
2023/10/01 07:48:29;;;;;;;13.77;6.75;;;15.00;90.30;;;;;;4999698;28;20018;-65
2023/10/01 07:51:03;;;;;;;16.92;7.53;;;15.30;90.40;;;;;;5006691;28;20033;-67
2023/10/01 07:53:42;;;;;;;12.43;6.15;;;15.40;88.60;;;;;;5000986;28;20045;-66
2023/10/01 07:56:15;;;;;;;13.27;6.60;;;15.40;88.70;;;;;;5008361;28;20486;-66
2023/10/01 07:58:47;;;;;;;11.38;6.45;;;15.40;88.10;;;;;;5002240;28;20033;-66
2023/10/01 08:01:36;;;;;;;13.02;6.20;;;15.50;88.50;;;;;;5004733;28;20378;-67
2023/10/01 08:04:06;;;;;;;14.65;6.32;;;15.50;88.00;;;;;;5004285;28;20034;-66
2023/10/01 08:06:41;;;;;;;10.10;6.45;;;15.60;87.90;;;;;;5006908;28;20027;-67
2023/10/01 08:09:12;;;;;;;13.45;6.95;;;15.70;87.70;;;;;;5004143;28;20080;-67
2023/10/01 08:14:26;;;;;;;11.10;6.13;;;15.80;87.60;;;;;;5002192;28;20028;-70
2023/10/01 08:16:53;;;;;;;10.82;6.68;;;15.90;87.00;;;;;;5000547;28;20117;-66
2023/10/01 08:19:22;;;;;;;11.35;6.07;;;16.00;86.50;;;;;;5003280;28;20037;-67
2023/10/01 08:21:51;;;;;;;10.68;6.40;;;16.00;86.30;;;;;;4998887;28;20088;-69
2023/10/01 08:24:18;;;;;;;12.05;6.00;;;15.80;85.90;;;;;;5002590;28;20105;-67
2023/10/01 08:27:01;;;;;;;10.80;6.40;;;15.80;86.50;;;;;;4996528;28;20153;-68
2023/10/01 08:32:11;;;;;;;13.43;6.30;;;15.60;86.30;;;;;;4998277;28;20459;-69
2023/10/01 08:37:31;;;;;;;11.73;6.97;;;15.70;86.50;;;;;;4996045;28;20509;-67
2023/10/01 08:39:57;;;;;;;13.07;6.55;;;15.70;86.30;;;;;;5001161;28;20026;-67
2023/10/01 08:42:28;;;;;;;14.35;6.22;;;15.70;86.40;;;;;;5003232;28;20026;-68
2023/10/01 08:45:02;;;;;;;10.63;6.35;;;15.80;86.70;;;;;;5002314;28;20060;-68
2023/10/01 08:47:37;;;;;;;9.68;6.80;;;15.90;87.50;;;;;;5003067;28;20490;-67
2023/10/01 08:50:19;;;;;;;13.27;7.20;;;15.80;86.00;;;;;;5003101;28;20046;-67
2023/10/01 08:52:52;;;;;;;10.57;6.72;;;15.80;86.10;;;;;;5009249;28;20398;-67
2023/10/01 09:00:49;;;;;;;11.93;6.45;;;15.70;86.50;;;;;;5010348;28;20042;-70
2023/10/01 09:03:28;;;;;;;12.63;6.97;;;15.70;87.10;;;;;;5005754;28;20376;-68
2023/10/01 09:06:04;;;;;;;12.07;6.65;;;15.70;87.00;;;;;;5006020;28;20049;-69
2023/10/01 09:08:42;;;;;;;12.25;6.40;;;15.60;86.80;;;;;;4999945;28;20033;-68
2023/10/01 09:11:13;;;;;;;11.27;6.07;;;15.70;86.90;;;;;;5009350;28;20268;-67
2023/10/01 09:13:45;;;;;;;;;;;15.70;87.50;;;;;;4999949;28;20041;-68
2023/10/01 09:16:11;;;;;;;13.57;6.00;;;15.70;87.10;;;;;;5004230;28;19913;-67
2023/10/01 09:19:02;;;;;;;16.23;6.15;;;15.70;87.10;;;;;;5005094;28;20038;-67
2023/10/01 09:21:28;;;;;;;14.02;5.40;;;15.50;87.10;;;;;;5006408;28;20026;-67
2023/10/01 09:23:57;;;;;;;14.27;6.28;;;15.40;87.50;;;;;;5000292;28;20072;-68
2023/10/01 09:26:40;;;;;;;12.85;5.90;;;15.40;88.10;;;;;;5018232;28;20073;-69
2023/10/01 09:29:20;;;;;;;11.18;6.10;;;15.40;88.00;;;;;;5000380;28;20053;-67
2023/10/01 09:31:56;;;;;;;11.82;6.03;;;15.40;88.30;;;;;;5006236;28;20076;-67
2023/10/01 09:34:31;;;;;;;14.32;6.60;;;15.70;88.70;;;;;;5003472;28;20531;-67
2023/10/01 09:37:06;;;;;;;13.38;5.95;;;15.80;87.50;;;;;;4998656;28;20053;-69
2023/10/01 09:39:38;;;;;;;11.80;5.45;;;16.00;87.50;;;;;;5002895;28;20459;-67
2023/10/01 09:42:22;;;;;;;14.80;6.45;;;16.10;87.80;;;;;;5004447;28;20037;-67
2023/10/01 09:44:53;;;;;;;15.45;5.75;;;16.20;88.10;;;;;;5011075;28;20045;-69
2023/10/01 09:47:23;;;;;;;;;;;16.60;88.20;;;;;;5009380;28;20091;-68
2023/10/01 09:49:51;;;;;;;11.65;5.25;;;16.70;87.10;;;;;;5008349;28;19913;-67
2023/10/01 09:52:27;;;;;;;14.02;5.72;;;16.70;86.10;;;;;;5005996;28;20351;-67
2023/10/01 09:55:01;;;;;;;14.07;6.13;;;16.40;86.40;;;;;;4998431;28;20114;-69
2023/10/01 09:57:28;;;;;;;11.50;5.15;;;16.40;87.00;;;;;;5006681;28;20368;-70
2023/10/01 10:00:14;;;;;;;12.30;5.93;;;16.40;87.30;;;;;;5011190;28;20026;-68
2023/10/01 10:02:50;;;;;;;14.20;5.72;;;16.40;87.50;;;;;;5002363;28;20041;-67
2023/10/01 10:05:26;;;;;;;13.95;5.85;;;16.30;87.50;;;;;;5003015;28;20042;-67
2023/10/01 10:08:13;;;;;;;13.05;5.47;;;16.40;87.50;;;;;;5000368;28;20034;-69
2023/10/01 10:10:52;;;;;;;14.23;5.47;;;16.30;87.80;;;;;;5003837;28;20045;-68
2023/10/01 10:13:46;;;;;;;11.68;5.32;;;16.50;88.00;;;;;;5003776;28;20629;-70
2023/10/01 10:16:32;;;;;;;13.30;5.65;;;16.50;87.70;;;;;;5005411;28;20120;-68
2023/10/01 10:19:15;;;;;;;12.73;5.32;;;16.90;87.50;;;;;;5001436;28;20030;-68
2023/10/01 10:24:31;;;;;;;11.98;5.53;;;16.90;87.20;;;;;;4996273;28;20044;-68
2023/10/01 10:27:09;;;;;;;12.20;5.85;;;16.80;86.10;;;;;;5007106;28;20045;-68
2023/10/01 10:29:47;;;;;;;12.40;5.53;;;17.00;86.90;;;;;;5014660;28;20034;-67
2023/10/01 10:32:13;;;;;;;13.73;5.65;;;17.00;86.10;;;;;;5002310;28;20117;-68
2023/10/01 10:35:03;;;;;;;13.95;5.78;;;17.00;86.50;;;;;;5004275;28;20033;-68
2023/10/01 10:37:38;;;;;;;10.80;5.50;;;16.70;87.20;;;;;;5008170;28;20042;-69
2023/10/01 10:40:12;;;;;;;14.77;5.95;;;16.40;88.00;;;;;;5002948;28;20057;-68
2023/10/01 10:42:39;;;;;;;15.35;5.68;;;16.30;88.50;;;;;;5005660;28;20050;-68
2023/10/01 10:45:19;;;;;;;12.07;6.07;;;16.10;89.00;;;;;;4997785;28;20145;-69
2023/10/01 10:50:45;;;;;;;13.38;6.57;;;16.00;90.10;;;;;;4999856;28;20510;-68
2023/10/01 10:53:22;;;;;;;10.70;5.30;;;16.00;91.00;;;;;;5001310;28;20030;-69
2023/10/01 10:56:06;;;;;;;17.23;6.18;;;16.00;91.10;;;;;;5004791;28;20111;-67
2023/10/01 10:59:03;;;;;;;13.13;5.82;;;15.80;91.40;;;;;;5005587;28;20026;-70
2023/10/01 11:01:46;;;;;;;12.25;5.72;;;15.70;91.80;;;;;;5005107;28;20050;-67
2023/10/01 11:04:13;;;;;;;13.32;6.30;;;15.60;92.30;;;;;;5006221;28;20022;-68
2023/10/01 11:07:01;;;;;;;10.98;6.25;;;15.60;92.70;;;;;;5003108;28;20034;-67
2023/10/01 11:09:27;;;;;;;10.73;5.90;;;15.60;93.00;;;;;;5001578;28;20061;-68
2023/10/01 11:12:01;;;;;;;10.65;6.05;;;15.60;93.50;;;;;;5007329;28;20128;-69
2023/10/01 11:14:26;;;;;;;13.55;6.20;;;15.50;93.60;;;;;;5003313;28;20033;-67
2023/10/01 11:16:52;;;;;;;12.40;6.30;;;15.50;93.90;;;;;;5003800;28;20018;-68
2023/10/01 11:19:25;;;;;;;12.45;6.72;;;15.60;94.30;;;;;;5021081;28;20037;-69
2023/10/01 11:21:59;;;;;;;12.93;6.15;;;15.40;94.70;;;;;;5009625;28;20030;-68
2023/10/01 11:24:53;;;;;;;13.40;6.88;;;15.50;95.00;;;;;;5004929;28;20033;-67
2023/10/01 11:27:25;;;;;;;15.38;6.63;;;15.50;94.80;;;;;;5006014;28;20029;-66
2023/10/01 11:30:12;;;;;;;11.90;6.85;;;15.40;95.30;;;;;;5003076;28;20368;-68
2023/10/01 11:35:38;;;;;;;14.07;7.22;;;15.40;95.90;;;;;;5001662;28;20068;-70
2023/10/01 11:38:19;;;;;;;15.60;7.80;;;15.70;96.20;;;;;;5018359;28;20065;-68
2023/10/01 11:41:07;;;;;;;13.38;7.47;;;15.70;95.90;;;;;;5010274;28;20042;-68
2023/10/01 11:43:59;;;;;;;16.67;7.82;;;15.60;95.60;;;;;;5004666;28;20037;-67
2023/10/01 11:49:16;;;;;;;;;;;15.80;95.70;;;;;;5008389;28;20134;-67
2023/10/01 11:54:20;;;;;;;13.77;7.32;;;15.80;95.20;;;;;;4998168;28;20053;-68
2023/10/01 11:57:04;;;;;;;11.35;6.75;;;16.00;95.60;;;;;;5004966;28;20068;-67
2023/10/01 11:59:30;;;;;;;10.95;6.85;;;16.00;95.20;;;;;;4996129;28;20313;-66
2023/10/01 12:02:15;;;;;;;13.38;6.70;;;16.00;95.60;;;;;;4999979;28;20117;-66
2023/10/01 12:04:44;;;;;;;13.25;6.57;;;15.90;95.80;;;;;;4996998;28;20121;-68
2023/10/01 12:07:17;;;;;;;13.70;7.20;;;16.00;95.90;;;;;;5002852;28;20486;-66
2023/10/01 12:09:53;;;;;;;11.48;6.50;;;15.90;95.90;;;;;;5004550;28;20033;-66
2023/10/01 12:12:21;;;;;;;10.55;6.72;;;15.90;96.10;;;;;;5005448;28;20061;-70
2023/10/01 12:15:33;;;;;;;14.07;6.65;;;15.90;96.10;;;;;;5002828;28;20045;-67
2023/10/01 12:17:44;;;;;;;15.43;6.78;;;15.70;96.20;;;;;;5007152;28;20033;-69
2023/10/01 12:20:22;;;;;;;12.95;6.85;;;15.60;96.20;;;;;;4999397;28;20073;-67
2023/10/01 12:23:04;;;;;;;14.52;7.03;;;15.60;96.50;;;;;;4995697;28;20126;-68
2023/10/01 12:25:44;;;;;;;11.15;7.25;;;15.60;96.80;;;;;;4999129;28;20084;-67
2023/10/01 12:28:15;;;;;;;12.50;7.40;;;15.60;96.50;;;;;;5005686;28;20109;-69
2023/10/01 12:30:41;;;;;;;14.77;8.07;;;15.60;96.80;;;;;;4994310;28;20038;-66
2023/10/01 12:33:06;;;;;;;13.35;7.80;;;15.40;96.80;;;;;;5008351;28;20060;-68
2023/10/01 12:35:32;;;;;;;14.90;8.25;;;15.40;97.00;;;;;;5009246;28;20034;-67
2023/10/01 12:38:13;;;;;;;14.93;8.80;;;15.50;97.30;;;;;;5000612;28;20030;-67
2023/10/01 12:40:40;;;;;;;16.15;8.48;;;15.50;97.40;;;;;;5006683;28;20031;-66
2023/10/01 12:45:52;;;;;;;17.70;8.43;;;15.50;97.30;;;;;;5001005;28;20037;-67
2023/10/01 12:48:20;;;;;;;16.65;8.93;;;15.50;97.60;;;;;;5013959;28;20079;-67
2023/10/01 12:50:59;;;;;;;17.92;9.32;;;15.50;97.50;;;;;;5008665;28;20065;-67
2023/10/01 12:53:26;;;;;;;13.75;8.75;;;15.50;97.40;;;;;;5005495;28;20057;-69
2023/10/01 12:55:52;;;;;;;16.45;9.00;;;15.50;97.40;;;;;;5008074;28;20482;-66
2023/10/01 12:58:36;;;;;;;17.27;9.18;;;15.70;97.60;;;;;;5000706;28;20045;-67
2023/10/01 13:01:06;;;;;;;19.83;9.07;;;15.70;97.30;;;;;;5006872;28;20759;-69
2023/10/01 13:03:42;;;;;;;18.67;10.10;;;15.60;97.40;;;;;;5001880;28;20117;-67
2023/10/01 13:06:12;;;;;;;15.48;8.90;;;15.60;97.30;;;;;;5005098;28;20040;-67
2023/10/01 13:08:41;;;;;;;16.35;8.70;;;15.70;97.30;;;;;;5009222;28;20030;-67
2023/10/01 13:11:06;;;;;;;20.17;9.15;;;15.80;97.20;;;;;;5011695;28;20064;-67
2023/10/01 13:13:35;;;;;;;14.77;8.70;;;15.80;97.20;;;;;;5001863;28;20045;-68
2023/10/01 13:16:01;;;;;;;16.35;8.35;;;15.80;97.20;;;;;;5002934;28;20034;-66
2023/10/01 13:18:31;;;;;;;14.93;8.60;;;16.00;97.10;;;;;;5006794;28;20027;-67
2023/10/01 13:23:28;;;;;;;13.43;8.13;;;16.10;96.40;;;;;;5007743;28;20105;-66
2023/10/01 13:26:06;;;;;;;16.65;8.40;;;16.10;96.40;;;;;;4999791;28;20480;-68
2023/10/01 13:28:50;;;;;;;20.27;8.25;;;16.20;96.50;;;;;;5000496;28;20030;-67
2023/10/01 13:34:06;;;;;;;15.15;7.03;;;16.30;96.50;;;;;;5002203;28;20029;-67
2023/10/01 13:36:50;;;;;;;13.55;7.07;;;16.40;96.20;;;;;;5000557;28;20045;-67
2023/10/01 14:09:47;;;;;;;12.80;5.88;;;17.00;95.40;;;;;;5007919;28;20041;-66
2023/10/01 14:12:13;;;;;;;14.07;6.07;;;17.00;95.00;;;;;;5004449;28;20080;-66
2023/10/01 14:14:43;;;;;;;12.27;5.45;;;17.00;94.80;;;;;;5006204;28;20379;-66
2023/10/01 14:17:13;;;;;;;9.98;5.32;;;17.20;94.80;;;;;;5013989;28;20027;-68
2023/10/01 14:19:41;;;;;;;12.60;5.03;;;17.20;94.50;;;;;;5004618;28;20041;-67
2023/10/01 14:22:19;;;;;;;11.05;4.88;;;17.10;94.10;;;;;;5004316;28;20026;-67
2023/10/01 14:24:47;;;;;;;15.93;5.78;;;17.30;94.20;;;;;;4999393;28;20116;-67